Flight Track Log - Related Links

Times and Time Zones

All times are in EDT time to prevent confusion due to time zone crossing. See the SWA359 flight status page for this flight to view local times or setup timezone preferences in your user account.

Time Position Orientation Groundspeed Altitude Reporting Facility
EDT Latitude Longitude Course Direction KTS MPH feet Rate Location/Type
Wed 07:13:19 AM 41.7328 -71.4353 316° Northwest 137 158 800  Level Boston Center
Wed 07:13:43 AM 41.7481 -71.4553 316° Northwest 149 171 2,200 3,600 Climbing Boston Center
Wed 07:14:24 AM 41.7694 -71.4850 314° West 177 204 4,700 3,235 Climbing Boston Center
Wed 07:15:25 AM 41.8075 -71.5567 305° West 243 280 7,700 3,246 Climbing Boston Center
Wed 07:16:26 AM 41.8300 -71.6456 289° West 257 296 11,300 3,570 Climbing Boston Center
Wed 07:17:26 AM 41.8414 -71.7533 278° West 290 334 14,900 3,570 Climbing Boston Center
Wed 07:18:27 AM 41.8544 -71.8625 279° West 294 338 18,500 3,049 Climbing Boston Center
Wed 07:19:28 AM 41.8683 -71.9814 279° West 319 367 21,100 2,508 Climbing Boston Center
Wed 07:20:29 AM 41.8811 -72.1047 278° West 333 383 23,600 2,459 Climbing Boston Center
Wed 07:21:30 AM 41.8642 -72.2258 259° West 340 391 26,100 2,390 Climbing Boston Center
Wed 07:22:32 AM 41.8214 -72.3319 242° Southwest 326 375 28,500 2,341 Climbing Boston Center
Wed 07:23:33 AM 41.7753 -72.4444 241° Southwest 340 391 30,900 1,820 Climbing Boston Center
Wed 07:24:34 AM 41.7286 -72.5539 240° Southwest 339 390 32,200 1,426 Climbing Boston Center
Wed 07:25:35 AM 41.6808 -72.6656 240° Southwest 341 392 33,800 885 Climbing Boston Center
Wed 07:26:36 AM 41.6308 -72.7803 240° Southwest 351 404 34,000 98 Climbing Boston Center
Wed 07:27:37 AM 41.5814 -72.8942 240° Southwest 352 405 34,000  Level Boston Center
Wed 07:28:38 AM 41.5261 -73.0208 240° Southwest 353 406 34,000  Level Boston Center
Wed 07:29:39 AM 41.4778 -73.1331 240° Southwest 353 406 34,000  Level Boston Center
Wed 07:30:40 AM 41.4286 -73.2431 239° Southwest 352 405 34,000  Level Boston Center
Wed 07:31:41 AM 41.3794 -73.3556 240° Southwest 352 405 34,000  Level Boston Center
Wed 07:32:42 AM 41.3303 -73.4669 240° Southwest 352 405 34,000  Level Boston Center
Wed 07:33:43 AM 41.2706 -73.5992 239° Southwest 352 405 34,000  Level Boston Center
Wed 07:34:44 AM 41.2106 -73.6997 232° Southwest 349 402 34,000  Level Boston Center
Wed 07:35:46 AM 41.1494 -73.8003 231° Southwest 351 404 34,000  Level Boston Center
Wed 07:36:47 AM 41.0906 -73.9008 232° Southwest 350 403 34,000  Level Boston Center
Wed 07:37:48 AM 41.0297 -74.0022 232° Southwest 350 403 34,000 -639 Level Boston Center
Wed 07:38:49 AM 40.9694 -74.1031 232° Southwest 351 404 32,700 -1,820 Descending Boston Center
Wed 07:39:50 AM 40.9086 -74.2019 231° Southwest 350 403 30,300 -2,262 Descending Boston Center
Wed 07:40:51 AM 40.8514 -74.2986 232° Southwest 340 391 28,100 -2,115 Descending Boston Center
Wed 07:41:52 AM 40.7881 -74.4050 232° Southwest 327 376 26,000 -969 Descending Boston Center
Wed 07:43:01 AM 40.7256 -74.5061 231° Southwest 340 391 26,000  Level New York Center
Wed 07:44:01 AM 40.6683 -74.6014 232° Southwest 340 391 26,000  Level New York Center
Wed 07:45:01 AM 40.6111 -74.6939 231° Southwest 335 386 26,000  Level New York Center
Wed 07:46:01 AM 40.5517 -74.7861 230° Southwest 335 386 26,000 -350 Level New York Center
Wed 07:47:01 AM 40.4861 -74.8778 227° Southwest 341 392 25,300 -1,200 Descending New York Center
Wed 07:48:01 AM 40.4267 -74.9669 229° Southwest 341 392 23,600 -1,700 Descending New York Center
Wed 07:49:01 AM 40.3628 -75.0583 227° Southwest 341 392 21,900 -1,700 Descending New York Center
Wed 07:50:01 AM 40.2992 -75.1442 226° Southwest 341 392 20,200 -1,800 Descending New York Center
Wed 07:51:01 AM 40.2311 -75.2406 227° Southwest 336 387 18,300 -1,100 Descending New York Center
Wed 07:52:01 AM 40.1672 -75.3261 226° Southwest 336 387 18,000 -150 Descending New York Center
Wed 07:53:01 AM 40.1122 -75.4011 226° Southwest 331 381 18,000  Level New York Center
Wed 07:54:01 AM 40.0458 -75.4972 228° Southwest 331 381 18,000 -150 Level New York Center
Wed 07:55:01 AM 39.9886 -75.5719 225° Southwest 331 381 17,700 -750 Descending New York Center
Wed 07:56:01 AM 39.9222 -75.6647 227° Southwest 331 381 16,500 -1,041 Descending New York Center
Wed 07:57:02 AM 39.8772 -75.7456 234° Southwest 322 371 15,600 -750 Descending New York Center
Wed 07:58:01 AM 39.8228 -75.8497 236° Southwest 317 365 15,000 -920 Descending New York Center
Wed 07:59:58 AM 39.7333 -76.0333 238° Southwest 302 348 12,900 -1,053 Descending Potomac TRACON
Wed 08:00:52 AM 39.6833 -76.1167 232° Southwest 291 335 12,000 -1,252 Descending Potomac TRACON
Wed 08:01:53 AM 39.6500 -76.1833 237° Southwest 276 318 10,500 -1,537 Descending Potomac TRACON
Wed 08:02:53 AM 39.6000 -76.2667 232° Southwest 279 321 8,900 -1,550 Descending Potomac TRACON
Wed 08:03:53 AM 39.5500 -76.3333 226° Southwest 289 333 7,400 -1,476 Descending Potomac TRACON
Wed 08:04:59 AM 39.4667 -76.4000 212° Southwest 287 330 5,800 -1,143 Descending Potomac TRACON
Wed 08:05:59 AM 39.4000 -76.4333 201° Southwest 290 334 5,000 -421 Descending Potomac TRACON
Wed 08:06:53 AM 39.3167 -76.4667 197° South 285 328 5,000 -667 Level Potomac TRACON
Wed 08:07:47 AM 39.2667 -76.4833 194° South 281 323 3,800 -1,053 Descending Potomac TRACON
Wed 08:08:47 AM 39.1833 -76.5167 197° South 270 311 3,000 -400 Descending Potomac TRACON
Wed 08:09:47 AM 39.1167 -76.5000 169° South 217 250 3,000 -211 Level Potomac TRACON
Wed 08:10:41 AM 39.0833 -76.5333 218° Southwest 190 219 2,600 -526 Descending Potomac TRACON
Wed 08:11:41 AM 39.0833 -76.5833 270° West 164 189 2,000 -526 Descending Potomac TRACON
Wed 08:12:35 AM 39.1000 -76.6000 322° Northwest 120 138 1,600 -526 Descending Potomac TRACON
Wed 08:13:35 AM 39.1333 -76.6333 322° Northwest 128 147 1,000 -600 Descending Potomac TRACON

Login

Don't have an account? Register now (free) for customized features, flight alerts, and more!